sensor_id;sensor_type;location;lat;lon;timestamp;temperature;humidity
17473;DHT22;8853;52.552;13.356;2022-08-01T00:00:00;30.60;28.40
17473;DHT22;8853;52.552;13.356;2022-08-01T00:02:28;30.70;28.40
17473;DHT22;8853;52.552;13.356;2022-08-01T00:04:57;30.70;28.50
17473;DHT22;8853;52.552;13.356;2022-08-01T00:07:26;30.70;28.60
17473;DHT22;8853;52.552;13.356;2022-08-01T00:09:54;30.60;28.60
17473;DHT22;8853;52.552;13.356;2022-08-01T00:12:23;30.60;28.60
17473;DHT22;8853;52.552;13.356;2022-08-01T00:14:51;30.70;28.70
17473;DHT22;8853;52.552;13.356;2022-08-01T00:17:20;30.60;28.80
17473;DHT22;8853;52.552;13.356;2022-08-01T00:19:49;30.70;28.80
17473;DHT22;8853;52.552;13.356;2022-08-01T00:22:18;30.60;29.10
17473;DHT22;8853;52.552;13.356;2022-08-01T00:24:47;30.60;29.10
17473;DHT22;8853;52.552;13.356;2022-08-01T00:27:15;30.70;29.20
17473;DHT22;8853;52.552;13.356;2022-08-01T00:29:44;30.70;29.20
17473;DHT22;8853;52.552;13.356;2022-08-01T00:32:12;30.60;29.30
17473;DHT22;8853;52.552;13.356;2022-08-01T00:34:41;30.70;29.50
17473;DHT22;8853;52.552;13.356;2022-08-01T00:37:10;30.60;29.60
17473;DHT22;8853;52.552;13.356;2022-08-01T00:39:38;30.60;29.70
17473;DHT22;8853;52.552;13.356;2022-08-01T00:42:08;30.60;29.80
17473;DHT22;8853;52.552;13.356;2022-08-01T00:44:36;30.60;30.00
17473;DHT22;8853;52.552;13.356;2022-08-01T00:47:04;30.60;30.10
17473;DHT22;8853;52.552;13.356;2022-08-01T00:49:33;30.60;30.20
17473;DHT22;8853;52.552;13.356;2022-08-01T00:52:02;30.60;30.30
17473;DHT22;8853;52.552;13.356;2022-08-01T00:54:30;30.60;30.50
17473;DHT22;8853;52.552;13.356;2022-08-01T00:56:59;30.60;30.60
17473;DHT22;8853;52.552;13.356;2022-08-01T00:59:28;30.60;30.90
17473;DHT22;8853;52.552;13.356;2022-08-01T01:01:57;30.50;30.80
17473;DHT22;8853;52.552;13.356;2022-08-01T01:04:25;30.60;30.80
17473;DHT22;8853;52.552;13.356;2022-08-01T01:07:23;30.60;31.00
17473;DHT22;8853;52.552;13.356;2022-08-01T01:10:03;30.50;31.30
17473;DHT22;8853;52.552;13.356;2022-08-01T01:15:11;30.50;31.30
17473;DHT22;8853;52.552;13.356;2022-08-01T01:20:41;30.40;31.50
17473;DHT22;8853;52.552;13.356;2022-08-01T01:26:42;30.50;31.70
17473;DHT22;8853;52.552;13.356;2022-08-01T01:29:11;30.40;31.80
17473;DHT22;8853;52.552;13.356;2022-08-01T01:31:44;30.40;32.00
17473;DHT22;8853;52.552;13.356;2022-08-01T01:34:11;30.40;31.90
17473;DHT22;8853;52.552;13.356;2022-08-01T01:36:39;30.40;31.90
17473;DHT22;8853;52.552;13.356;2022-08-01T01:39:08;30.50;31.80
17473;DHT22;8853;52.552;13.356;2022-08-01T01:41:37;30.50;31.80
17473;DHT22;8853;52.552;13.356;2022-08-01T01:44:05;30.50;31.80
17473;DHT22;8853;52.552;13.356;2022-08-01T01:46:34;30.50;31.80
17473;DHT22;8853;52.552;13.356;2022-08-01T01:49:03;30.50;31.80
17473;DHT22;8853;52.552;13.356;2022-08-01T01:51:31;30.50;31.80
17473;DHT22;8853;52.552;13.356;2022-08-01T01:54:00;30.50;31.80
17473;DHT22;8853;52.552;13.356;2022-08-01T01:56:29;30.60;31.80
17473;DHT22;8853;52.552;13.356;2022-08-01T01:58:59;30.60;31.80
17473;DHT22;8853;52.552;13.356;2022-08-01T02:01:28;30.60;31.90
17473;DHT22;8853;52.552;13.356;2022-08-01T02:03:56;30.50;31.80
17473;DHT22;8853;52.552;13.356;2022-08-01T02:06:24;30.60;32.40
17473;DHT22;8853;52.552;13.356;2022-08-01T02:08:59;30.60;31.80
17473;DHT22;8853;52.552;13.356;2022-08-01T02:11:31;30.60;31.90
17473;DHT22;8853;52.552;13.356;2022-08-01T02:14:03;30.60;32.00
17473;DHT22;8853;52.552;13.356;2022-08-01T02:16:33;30.50;32.00
17473;DHT22;8853;52.552;13.356;2022-08-01T02:19:00;30.50;32.10
17473;DHT22;8853;52.552;13.356;2022-08-01T02:21:37;30.50;32.00
17473;DHT22;8853;52.552;13.356;2022-08-01T02:24:07;30.60;32.10
17473;DHT22;8853;52.552;13.356;2022-08-01T02:26:32;30.50;32.10
17473;DHT22;8853;52.552;13.356;2022-08-01T02:29:02;30.50;32.20
17473;DHT22;8853;52.552;13.356;2022-08-01T02:31:30;30.50;32.20
17473;DHT22;8853;52.552;13.356;2022-08-01T02:34:04;30.50;32.20
17473;DHT22;8853;52.552;13.356;2022-08-01T02:36:33;30.50;32.10
17473;DHT22;8853;52.552;13.356;2022-08-01T02:39:03;30.50;32.20
17473;DHT22;8853;52.552;13.356;2022-08-01T02:41:30;30.50;32.20
17473;DHT22;8853;52.552;13.356;2022-08-01T02:43:59;30.50;32.20
17473;DHT22;8853;52.552;13.356;2022-08-01T02:46:35;30.50;32.30
17473;DHT22;8853;52.552;13.356;2022-08-01T02:49:02;30.50;32.20
17473;DHT22;8853;52.552;13.356;2022-08-01T02:51:30;30.50;32.30
17473;DHT22;8853;52.552;13.356;2022-08-01T02:53:59;30.50;32.30
17473;DHT22;8853;52.552;13.356;2022-08-01T03:01:13;30.50;32.30
17473;DHT22;8853;52.552;13.356;2022-08-01T03:03:41;30.30;33.00
17473;DHT22;8853;52.552;13.356;2022-08-01T03:06:09;30.30;33.00
17473;DHT22;8853;52.552;13.356;2022-08-01T03:08:38;30.40;32.90
17473;DHT22;8853;52.552;13.356;2022-08-01T03:11:07;30.40;33.50
17473;DHT22;8853;52.552;13.356;2022-08-01T03:13:35;30.40;32.80
17473;DHT22;8853;52.552;13.356;2022-08-01T03:16:04;30.50;32.80
17473;DHT22;8853;52.552;13.356;2022-08-01T03:18:32;30.50;32.70
17473;DHT22;8853;52.552;13.356;2022-08-01T03:21:01;30.50;32.70
17473;DHT22;8853;52.552;13.356;2022-08-01T03:23:30;30.50;32.60
17473;DHT22;8853;52.552;13.356;2022-08-01T03:25:58;30.50;32.70
17473;DHT22;8853;52.552;13.356;2022-08-01T03:28:27;30.50;32.70
17473;DHT22;8853;52.552;13.356;2022-08-01T03:30:56;30.50;32.70
17473;DHT22;8853;52.552;13.356;2022-08-01T03:33:24;30.50;32.80
17473;DHT22;8853;52.552;13.356;2022-08-01T03:35:54;30.50;32.80
17473;DHT22;8853;52.552;13.356;2022-08-01T03:38:23;30.50;32.90
17473;DHT22;8853;52.552;13.356;2022-08-01T03:40:53;30.50;32.80
17473;DHT22;8853;52.552;13.356;2022-08-01T03:45:56;30.50;33.20
17473;DHT22;8853;52.552;13.356;2022-08-01T03:48:27;30.50;33.30
17473;DHT22;8853;52.552;13.356;2022-08-01T03:50:54;30.40;33.60
17473;DHT22;8853;52.552;13.356;2022-08-01T03:53:24;30.50;33.60
17473;DHT22;8853;52.552;13.356;2022-08-01T03:55:51;30.40;33.70
17473;DHT22;8853;52.552;13.356;2022-08-01T03:58:20;30.40;33.70
17473;DHT22;8853;52.552;13.356;2022-08-01T04:00:49;30.40;33.80
17473;DHT22;8853;52.552;13.356;2022-08-01T04:03:17;30.40;33.90
17473;DHT22;8853;52.552;13.356;2022-08-01T04:05:46;30.40;33.90
17473;DHT22;8853;52.552;13.356;2022-08-01T04:08:14;30.40;34.70
17473;DHT22;8853;52.552;13.356;2022-08-01T04:10:43;30.40;34.10
17473;DHT22;8853;52.552;13.356;2022-08-01T04:13:12;30.40;34.30
17473;DHT22;8853;52.552;13.356;2022-08-01T04:15:40;30.40;34.40
17473;DHT22;8853;52.552;13.356;2022-08-01T04:18:09;30.40;34.50
17473;DHT22;8853;52.552;13.356;2022-08-01T04:20:38;30.40;34.70
17473;DHT22;8853;52.552;13.356;2022-08-01T04:23:06;30.40;34.50
17473;DHT22;8853;52.552;13.356;2022-08-01T04:25:35;30.40;34.50
17473;DHT22;8853;52.552;13.356;2022-08-01T04:28:04;30.40;34.40
17473;DHT22;8853;52.552;13.356;2022-08-01T04:30:33;30.30;34.30
17473;DHT22;8853;52.552;13.356;2022-08-01T04:33:02;30.40;34.10
17473;DHT22;8853;52.552;13.356;2022-08-01T04:35:30;30.40;34.00
17473;DHT22;8853;52.552;13.356;2022-08-01T04:37:59;30.40;33.80
17473;DHT22;8853;52.552;13.356;2022-08-01T04:40:28;30.40;33.80
17473;DHT22;8853;52.552;13.356;2022-08-01T04:42:56;30.40;33.70
17473;DHT22;8853;52.552;13.356;2022-08-01T04:45:25;30.40;33.60
17473;DHT22;8853;52.552;13.356;2022-08-01T04:47:53;30.40;33.50
17473;DHT22;8853;52.552;13.356;2022-08-01T04:50:22;30.40;33.50
17473;DHT22;8853;52.552;13.356;2022-08-01T04:52:51;30.40;33.50
17473;DHT22;8853;52.552;13.356;2022-08-01T04:55:19;30.40;33.40
17473;DHT22;8853;52.552;13.356;2022-08-01T04:57:48;30.40;33.30
17473;DHT22;8853;52.552;13.356;2022-08-01T05:00:17;30.40;33.20
17473;DHT22;8853;52.552;13.356;2022-08-01T05:02:45;30.40;33.30
17473;DHT22;8853;52.552;13.356;2022-08-01T05:05:14;30.40;33.30
17473;DHT22;8853;52.552;13.356;2022-08-01T05:07:42;30.40;33.20
17473;DHT22;8853;52.552;13.356;2022-08-01T05:10:11;30.40;33.10
17473;DHT22;8853;52.552;13.356;2022-08-01T05:12:40;30.40;33.10
17473;DHT22;8853;52.552;13.356;2022-08-01T05:15:09;30.50;33.20
17473;DHT22;8853;52.552;13.356;2022-08-01T05:17:38;30.50;33.10
17473;DHT22;8853;52.552;13.356;2022-08-01T05:20:07;30.40;33.00
17473;DHT22;8853;52.552;13.356;2022-08-01T05:22:36;30.50;33.00
17473;DHT22;8853;52.552;13.356;2022-08-01T05:25:05;30.50;33.00
17473;DHT22;8853;52.552;13.356;2022-08-01T05:27:33;30.50;33.00
17473;DHT22;8853;52.552;13.356;2022-08-01T05:30:07;30.50;32.90
17473;DHT22;8853;52.552;13.356;2022-08-01T05:32:36;30.50;32.90
17473;DHT22;8853;52.552;13.356;2022-08-01T05:35:06;30.50;32.90
17473;DHT22;8853;52.552;13.356;2022-08-01T05:37:34;30.50;32.90
17473;DHT22;8853;52.552;13.356;2022-08-01T05:40:04;30.50;32.80
17473;DHT22;8853;52.552;13.356;2022-08-01T05:42:32;30.50;32.80
17473;DHT22;8853;52.552;13.356;2022-08-01T05:45:01;30.50;32.80
17473;DHT22;8853;52.552;13.356;2022-08-01T05:47:30;30.50;32.70
17473;DHT22;8853;52.552;13.356;2022-08-01T05:49:58;30.50;32.60
17473;DHT22;8853;52.552;13.356;2022-08-01T05:52:27;30.50;32.60
17473;DHT22;8853;52.552;13.356;2022-08-01T05:54:56;30.50;32.20
17473;DHT22;8853;52.552;13.356;2022-08-01T05:57:24;30.50;32.50
17473;DHT22;8853;52.552;13.356;2022-08-01T05:59:53;30.50;32.50
17473;DHT22;8853;52.552;13.356;2022-08-01T06:02:22;30.50;32.50
17473;DHT22;8853;52.552;13.356;2022-08-01T06:04:51;30.50;32.50
17473;DHT22;8853;52.552;13.356;2022-08-01T06:07:19;30.50;32.50
17473;DHT22;8853;52.552;13.356;2022-08-01T06:09:48;30.50;32.40
17473;DHT22;8853;52.552;13.356;2022-08-01T06:12:17;30.50;32.40
17473;DHT22;8853;52.552;13.356;2022-08-01T06:14:45;30.50;32.40
17473;DHT22;8853;52.552;13.356;2022-08-01T06:17:15;30.50;32.40
17473;DHT22;8853;52.552;13.356;2022-08-01T06:19:43;30.60;32.30
17473;DHT22;8853;52.552;13.356;2022-08-01T06:22:12;30.60;32.40
17473;DHT22;8853;52.552;13.356;2022-08-01T06:24:40;30.60;32.30
17473;DHT22;8853;52.552;13.356;2022-08-01T06:27:09;30.60;32.30
17473;DHT22;8853;52.552;13.356;2022-08-01T06:29:38;30.60;32.30
17473;DHT22;8853;52.552;13.356;2022-08-01T06:32:06;30.50;32.30
17473;DHT22;8853;52.552;13.356;2022-08-01T06:34:35;30.60;32.30
17473;DHT22;8853;52.552;13.356;2022-08-01T06:37:04;30.60;32.30
17473;DHT22;8853;52.552;13.356;2022-08-01T06:39:32;30.60;32.30
17473;DHT22;8853;52.552;13.356;2022-08-01T06:42:01;30.60;32.20
17473;DHT22;8853;52.552;13.356;2022-08-01T06:44:29;30.60;32.20
17473;DHT22;8853;52.552;13.356;2022-08-01T06:46:58;30.60;32.20
17473;DHT22;8853;52.552;13.356;2022-08-01T06:49:27;30.60;32.20
17473;DHT22;8853;52.552;13.356;2022-08-01T06:51:55;30.60;32.10
17473;DHT22;8853;52.552;13.356;2022-08-01T06:54:24;30.60;32.10
17473;DHT22;8853;52.552;13.356;2022-08-01T06:56:53;30.60;32.00
17473;DHT22;8853;52.552;13.356;2022-08-01T06:59:21;30.60;32.00
17473;DHT22;8853;52.552;13.356;2022-08-01T07:01:50;30.60;31.90
17473;DHT22;8853;52.552;13.356;2022-08-01T07:04:18;30.60;32.00
17473;DHT22;8853;52.552;13.356;2022-08-01T07:06:47;30.60;31.90
17473;DHT22;8853;52.552;13.356;2022-08-01T07:09:16;30.60;31.80
17473;DHT22;8853;52.552;13.356;2022-08-01T07:11:44;30.60;31.80
17473;DHT22;8853;52.552;13.356;2022-08-01T07:14:13;30.60;31.80
17473;DHT22;8853;52.552;13.356;2022-08-01T07:16:42;30.60;31.90
17473;DHT22;8853;52.552;13.356;2022-08-01T07:19:10;30.60;31.80
17473;DHT22;8853;52.552;13.356;2022-08-01T07:21:39;30.60;31.70
17473;DHT22;8853;52.552;13.356;2022-08-01T07:24:08;30.60;31.80
17473;DHT22;8853;52.552;13.356;2022-08-01T07:26:37;30.60;31.80
17473;DHT22;8853;52.552;13.356;2022-08-01T07:29:05;30.60;31.80
17473;DHT22;8853;52.552;13.356;2022-08-01T07:31:34;30.70;31.70
17473;DHT22;8853;52.552;13.356;2022-08-01T07:34:03;30.60;31.70
17473;DHT22;8853;52.552;13.356;2022-08-01T07:36:31;30.60;31.70
17473;DHT22;8853;52.552;13.356;2022-08-01T07:39:00;30.60;31.60
17473;DHT22;8853;52.552;13.356;2022-08-01T07:41:29;30.70;32.10
17473;DHT22;8853;52.552;13.356;2022-08-01T07:43:58;30.60;31.50
17473;DHT22;8853;52.552;13.356;2022-08-01T07:46:27;30.70;31.40
17473;DHT22;8853;52.552;13.356;2022-08-01T07:48:57;30.60;31.40
17473;DHT22;8853;52.552;13.356;2022-08-01T07:51:26;30.60;31.40
17473;DHT22;8853;52.552;13.356;2022-08-01T07:53:54;30.60;31.30
17473;DHT22;8853;52.552;13.356;2022-08-01T07:56:23;30.70;31.30
17473;DHT22;8853;52.552;13.356;2022-08-01T07:58:52;30.70;31.30
17473;DHT22;8853;52.552;13.356;2022-08-01T08:01:20;30.70;31.20
17473;DHT22;8853;52.552;13.356;2022-08-01T08:03:49;30.60;31.30
17473;DHT22;8853;52.552;13.356;2022-08-01T08:06:17;30.70;31.20
17473;DHT22;8853;52.552;13.356;2022-08-01T08:08:46;30.70;31.20
17473;DHT22;8853;52.552;13.356;2022-08-01T08:11:15;30.70;31.30
17473;DHT22;8853;52.552;13.356;2022-08-01T08:13:43;30.70;31.20
17473;DHT22;8853;52.552;13.356;2022-08-01T08:16:12;30.70;31.20
17473;DHT22;8853;52.552;13.356;2022-08-01T08:18:41;30.70;31.10
17473;DHT22;8853;52.552;13.356;2022-08-01T08:21:09;30.70;31.10
17473;DHT22;8853;52.552;13.356;2022-08-01T08:23:39;30.70;31.10
17473;DHT22;8853;52.552;13.356;2022-08-01T08:26:26;30.70;31.00
17473;DHT22;8853;52.552;13.356;2022-08-01T08:28:55;30.70;31.10
17473;DHT22;8853;52.552;13.356;2022-08-01T08:31:23;30.60;31.10
17473;DHT22;8853;52.552;13.356;2022-08-01T08:33:52;30.60;31.00
17473;DHT22;8853;52.552;13.356;2022-08-01T08:36:21;30.70;31.00
17473;DHT22;8853;52.552;13.356;2022-08-01T08:38:50;30.70;31.00
17473;DHT22;8853;52.552;13.356;2022-08-01T08:41:18;30.70;30.90
17473;DHT22;8853;52.552;13.356;2022-08-01T08:43:47;30.70;30.90
17473;DHT22;8853;52.552;13.356;2022-08-01T08:46:16;30.70;30.90
17473;DHT22;8853;52.552;13.356;2022-08-01T08:48:44;30.70;30.80
17473;DHT22;8853;52.552;13.356;2022-08-01T08:51:13;30.70;30.80
17473;DHT22;8853;52.552;13.356;2022-08-01T08:53:42;30.70;30.80
17473;DHT22;8853;52.552;13.356;2022-08-01T08:56:12;30.70;30.80
17473;DHT22;8853;52.552;13.356;2022-08-01T08:58:46;30.70;30.80
17473;DHT22;8853;52.552;13.356;2022-08-01T09:01:15;30.70;30.70
17473;DHT22;8853;52.552;13.356;2022-08-01T09:03:43;30.70;30.70
17473;DHT22;8853;52.552;13.356;2022-08-01T09:06:12;30.70;30.70
17473;DHT22;8853;52.552;13.356;2022-08-01T09:08:41;30.70;30.70
17473;DHT22;8853;52.552;13.356;2022-08-01T09:11:09;30.80;30.70
17473;DHT22;8853;52.552;13.356;2022-08-01T09:13:39;30.80;30.70
17473;DHT22;8853;52.552;13.356;2022-08-01T09:16:07;30.70;30.60
17473;DHT22;8853;52.552;13.356;2022-08-01T09:18:39;30.80;30.60
17473;DHT22;8853;52.552;13.356;2022-08-01T09:23:46;30.80;30.60
17473;DHT22;8853;52.552;13.356;2022-08-01T09:26:17;30.80;30.60
17473;DHT22;8853;52.552;13.356;2022-08-01T09:28:45;30.80;30.60
17473;DHT22;8853;52.552;13.356;2022-08-01T09:31:14;30.80;30.60
17473;DHT22;8853;52.552;13.356;2022-08-01T09:33:49;30.80;30.60
17473;DHT22;8853;52.552;13.356;2022-08-01T09:36:18;30.80;30.50
17473;DHT22;8853;52.552;13.356;2022-08-01T09:38:47;30.80;30.60
17473;DHT22;8853;52.552;13.356;2022-08-01T09:41:15;30.80;30.50
17473;DHT22;8853;52.552;13.356;2022-08-01T09:43:50;30.80;30.50
17473;DHT22;8853;52.552;13.356;2022-08-01T09:46:18;30.80;30.50
17473;DHT22;8853;52.552;13.356;2022-08-01T09:49:01;30.80;30.50
17473;DHT22;8853;52.552;13.356;2022-08-01T09:51:37;30.80;30.50
17473;DHT22;8853;52.552;13.356;2022-08-01T09:54:05;30.80;30.50
17473;DHT22;8853;52.552;13.356;2022-08-01T09:56:38;30.80;30.50
17473;DHT22;8853;52.552;13.356;2022-08-01T09:59:05;30.80;30.50
17473;DHT22;8853;52.552;13.356;2022-08-01T10:01:47;30.70;30.50
17473;DHT22;8853;52.552;13.356;2022-08-01T10:04:17;30.80;30.50
17473;DHT22;8853;52.552;13.356;2022-08-01T10:06:45;30.80;30.50
17473;DHT22;8853;52.552;13.356;2022-08-01T10:09:14;30.80;30.50
17473;DHT22;8853;52.552;13.356;2022-08-01T10:11:42;30.80;30.50
17473;DHT22;8853;52.552;13.356;2022-08-01T10:14:11;30.80;30.40
17473;DHT22;8853;52.552;13.356;2022-08-01T10:16:40;30.80;30.40
17473;DHT22;8853;52.552;13.356;2022-08-01T10:19:09;30.90;30.40
17473;DHT22;8853;52.552;13.356;2022-08-01T10:21:38;30.80;30.40
17473;DHT22;8853;52.552;13.356;2022-08-01T10:24:07;30.80;31.00
17473;DHT22;8853;52.552;13.356;2022-08-01T10:26:35;30.80;30.30
17473;DHT22;8853;52.552;13.356;2022-08-01T10:29:04;30.80;30.30
17473;DHT22;8853;52.552;13.356;2022-08-01T10:31:32;30.80;30.30
17473;DHT22;8853;52.552;13.356;2022-08-01T10:34:01;30.80;30.30
17473;DHT22;8853;52.552;13.356;2022-08-01T10:36:30;30.90;30.30
17473;DHT22;8853;52.552;13.356;2022-08-01T10:38:58;30.80;30.30
17473;DHT22;8853;52.552;13.356;2022-08-01T10:41:27;30.80;30.20
17473;DHT22;8853;52.552;13.356;2022-08-01T10:43:55;30.90;30.20
17473;DHT22;8853;52.552;13.356;2022-08-01T10:46:24;30.90;30.20
17473;DHT22;8853;52.552;13.356;2022-08-01T10:48:58;30.90;30.30
17473;DHT22;8853;52.552;13.356;2022-08-01T10:51:25;30.90;30.20
17473;DHT22;8853;52.552;13.356;2022-08-01T10:53:54;30.90;30.20
17473;DHT22;8853;52.552;13.356;2022-08-01T10:56:23;30.90;30.20
17473;DHT22;8853;52.552;13.356;2022-08-01T10:58:54;30.90;30.20
17473;DHT22;8853;52.552;13.356;2022-08-01T11:01:26;30.80;30.20
17473;DHT22;8853;52.552;13.356;2022-08-01T11:04:02;30.80;30.20
17473;DHT22;8853;52.552;13.356;2022-08-01T11:09:03;30.80;30.20
17473;DHT22;8853;52.552;13.356;2022-08-01T11:11:30;30.90;30.20
17473;DHT22;8853;52.552;13.356;2022-08-01T11:16:28;30.90;30.20
17473;DHT22;8853;52.552;13.356;2022-08-01T11:18:56;30.90;30.20
17473;DHT22;8853;52.552;13.356;2022-08-01T11:27:23;30.80;30.30
17473;DHT22;8853;52.552;13.356;2022-08-01T11:35:15;30.70;30.50
17473;DHT22;8853;52.552;13.356;2022-08-01T11:37:44;30.70;30.40
17473;DHT22;8853;52.552;13.356;2022-08-01T11:40:28;30.80;30.40
17473;DHT22;8853;52.552;13.356;2022-08-01T11:45:54;30.80;30.30
17473;DHT22;8853;52.552;13.356;2022-08-01T11:48:25;30.80;30.30
17473;DHT22;8853;52.552;13.356;2022-08-01T11:50:53;30.80;30.30
17473;DHT22;8853;52.552;13.356;2022-08-01T11:53:22;30.80;30.30
17473;DHT22;8853;52.552;13.356;2022-08-01T11:55:53;30.90;30.20
17473;DHT22;8853;52.552;13.356;2022-08-01T11:58:23;30.80;30.20
17473;DHT22;8853;52.552;13.356;2022-08-01T12:00:54;30.80;30.10
17473;DHT22;8853;52.552;13.356;2022-08-01T12:03:28;30.90;30.10
17473;DHT22;8853;52.552;13.356;2022-08-01T12:05:56;30.90;30.10
17473;DHT22;8853;52.552;13.356;2022-08-01T12:10:54;30.90;30.10
17473;DHT22;8853;52.552;13.356;2022-08-01T12:13:22;30.90;30.00
17473;DHT22;8853;52.552;13.356;2022-08-01T12:15:51;30.90;30.00
17473;DHT22;8853;52.552;13.356;2022-08-01T12:18:19;31.00;30.50
17473;DHT22;8853;52.552;13.356;2022-08-01T12:20:48;31.00;30.40
17473;DHT22;8853;52.552;13.356;2022-08-01T12:23:17;30.90;29.90
17473;DHT22;8853;52.552;13.356;2022-08-01T12:25:50;31.00;30.40
17473;DHT22;8853;52.552;13.356;2022-08-01T12:28:14;31.00;30.40
17473;DHT22;8853;52.552;13.356;2022-08-01T12:30:43;31.00;30.40
17473;DHT22;8853;52.552;13.356;2022-08-01T12:33:16;31.00;30.40
17473;DHT22;8853;52.552;13.356;2022-08-01T12:35:41;31.00;30.40
17473;DHT22;8853;52.552;13.356;2022-08-01T12:38:17;31.00;30.40
17473;DHT22;8853;52.552;13.356;2022-08-01T12:40:45;31.00;30.40
17473;DHT22;8853;52.552;13.356;2022-08-01T12:43:18;31.00;30.30
17473;DHT22;8853;52.552;13.356;2022-08-01T12:45:47;31.00;30.40
17473;DHT22;8853;52.552;13.356;2022-08-01T12:48:16;31.00;30.40
17473;DHT22;8853;52.552;13.356;2022-08-01T12:50:45;31.00;30.40
17473;DHT22;8853;52.552;13.356;2022-08-01T12:53:13;31.00;30.30
17473;DHT22;8853;52.552;13.356;2022-08-01T12:55:48;31.00;30.30
17473;DHT22;8853;52.552;13.356;2022-08-01T12:58:16;31.00;30.30
17473;DHT22;8853;52.552;13.356;2022-08-01T13:00:46;31.00;30.30
17473;DHT22;8853;52.552;13.356;2022-08-01T13:03:17;31.00;30.30
17473;DHT22;8853;52.552;13.356;2022-08-01T13:05:48;31.00;30.30
17473;DHT22;8853;52.552;13.356;2022-08-01T13:08:17;31.00;30.30
17473;DHT22;8853;52.552;13.356;2022-08-01T13:10:45;31.00;30.30
17473;DHT22;8853;52.552;13.356;2022-08-01T13:13:14;31.00;30.30
17473;DHT22;8853;52.552;13.356;2022-08-01T13:15:44;31.00;30.30
17473;DHT22;8853;52.552;13.356;2022-08-01T13:18:30;31.00;30.30
17473;DHT22;8853;52.552;13.356;2022-08-01T13:21:15;31.00;30.30
17473;DHT22;8853;52.552;13.356;2022-08-01T13:24:05;31.00;30.30
17473;DHT22;8853;52.552;13.356;2022-08-01T13:27:04;30.90;29.90
17473;DHT22;8853;52.552;13.356;2022-08-01T13:29:21;30.90;30.00
17473;DHT22;8853;52.552;13.356;2022-08-01T13:31:49;30.90;30.10
17473;DHT22;8853;52.552;13.356;2022-08-01T13:34:18;30.90;30.10
17473;DHT22;8853;52.552;13.356;2022-08-01T13:36:46;30.90;29.70
17473;DHT22;8853;52.552;13.356;2022-08-01T13:39:15;31.00;30.50
17473;DHT22;8853;52.552;13.356;2022-08-01T13:42:02;31.00;30.40
17473;DHT22;8853;52.552;13.356;2022-08-01T13:44:31;31.00;30.40
17473;DHT22;8853;52.552;13.356;2022-08-01T13:47:00;30.90;29.90
17473;DHT22;8853;52.552;13.356;2022-08-01T13:49:28;31.00;30.40
17473;DHT22;8853;52.552;13.356;2022-08-01T13:51:57;31.00;30.30
17473;DHT22;8853;52.552;13.356;2022-08-01T13:54:26;31.00;30.30
17473;DHT22;8853;52.552;13.356;2022-08-01T13:56:54;31.00;30.30
17473;DHT22;8853;52.552;13.356;2022-08-01T13:59:23;31.00;30.30
17473;DHT22;8853;52.552;13.356;2022-08-01T14:01:51;31.00;30.20
17473;DHT22;8853;52.552;13.356;2022-08-01T14:04:20;31.00;30.20
17473;DHT22;8853;52.552;13.356;2022-08-01T14:06:49;31.00;30.20
17473;DHT22;8853;52.552;13.356;2022-08-01T14:09:18;31.00;31.60
17473;DHT22;8853;52.552;13.356;2022-08-01T14:11:47;31.10;31.60
17473;DHT22;8853;52.552;13.356;2022-08-01T14:14:15;31.00;31.50
17473;DHT22;8853;52.552;13.356;2022-08-01T14:16:44;31.00;32.00
17473;DHT22;8853;52.552;13.356;2022-08-01T14:19:13;31.00;32.20
17473;DHT22;8853;52.552;13.356;2022-08-01T14:21:41;31.00;32.30
17473;DHT22;8853;52.552;13.356;2022-08-01T14:24:10;31.10;32.30
17473;DHT22;8853;52.552;13.356;2022-08-01T14:26:38;31.10;32.10
17473;DHT22;8853;52.552;13.356;2022-08-01T14:29:07;31.10;32.00
17473;DHT22;8853;52.552;13.356;2022-08-01T14:31:36;31.10;31.70
17473;DHT22;8853;52.552;13.356;2022-08-01T14:34:06;31.10;31.60
17473;DHT22;8853;52.552;13.356;2022-08-01T14:36:34;31.10;31.60
17473;DHT22;8853;52.552;13.356;2022-08-01T14:39:03;31.10;31.50
17473;DHT22;8853;52.552;13.356;2022-08-01T14:41:32;31.10;31.50
17473;DHT22;8853;52.552;13.356;2022-08-01T14:44:00;31.10;31.40
17473;DHT22;8853;52.552;13.356;2022-08-01T14:46:29;31.10;31.40
17473;DHT22;8853;52.552;13.356;2022-08-01T14:48:57;31.10;31.40
17473;DHT22;8853;52.552;13.356;2022-08-01T14:51:26;31.10;31.20
17473;DHT22;8853;52.552;13.356;2022-08-01T14:53:55;31.10;31.80
17473;DHT22;8853;52.552;13.356;2022-08-01T14:56:23;31.10;32.00
17473;DHT22;8853;52.552;13.356;2022-08-01T14:58:52;31.10;32.30
17473;DHT22;8853;52.552;13.356;2022-08-01T15:01:21;31.10;33.00
17473;DHT22;8853;52.552;13.356;2022-08-01T15:03:49;31.10;33.30
17473;DHT22;8853;52.552;13.356;2022-08-01T15:06:18;31.10;33.70
17473;DHT22;8853;52.552;13.356;2022-08-01T15:08:46;31.00;33.50
17473;DHT22;8853;52.552;13.356;2022-08-01T15:11:15;31.00;33.30
17473;DHT22;8853;52.552;13.356;2022-08-01T15:13:44;31.00;33.30
17473;DHT22;8853;52.552;13.356;2022-08-01T15:16:12;31.00;33.30
17473;DHT22;8853;52.552;13.356;2022-08-01T15:18:47;31.00;33.20
17473;DHT22;8853;52.552;13.356;2022-08-01T15:21:20;31.00;33.10
17473;DHT22;8853;52.552;13.356;2022-08-01T15:23:48;31.00;33.20
17473;DHT22;8853;52.552;13.356;2022-08-01T15:26:17;30.90;32.60
17473;DHT22;8853;52.552;13.356;2022-08-01T15:28:46;30.90;32.40
17473;DHT22;8853;52.552;13.356;2022-08-01T15:31:14;31.00;33.00
17473;DHT22;8853;52.552;13.356;2022-08-01T15:33:43;31.00;32.90
17473;DHT22;8853;52.552;13.356;2022-08-01T15:36:11;31.00;32.90
17473;DHT22;8853;52.552;13.356;2022-08-01T15:38:40;31.00;32.70
17473;DHT22;8853;52.552;13.356;2022-08-01T15:41:09;31.00;32.70
17473;DHT22;8853;52.552;13.356;2022-08-01T15:43:38;31.10;32.70
17473;DHT22;8853;52.552;13.356;2022-08-01T15:46:07;31.10;32.60
17473;DHT22;8853;52.552;13.356;2022-08-01T15:48:36;31.10;32.60
17473;DHT22;8853;52.552;13.356;2022-08-01T15:51:04;31.10;32.50
17473;DHT22;8853;52.552;13.356;2022-08-01T15:53:33;31.10;32.50
17473;DHT22;8853;52.552;13.356;2022-08-01T15:56:02;31.00;31.90
17473;DHT22;8853;52.552;13.356;2022-08-01T15:58:30;31.10;32.20
17473;DHT22;8853;52.552;13.356;2022-08-01T16:00:59;31.10;32.30
17473;DHT22;8853;52.552;13.356;2022-08-01T16:03:28;31.10;32.00
17473;DHT22;8853;52.552;13.356;2022-08-01T16:05:56;31.10;31.80
17473;DHT22;8853;52.552;13.356;2022-08-01T16:08:25;31.10;31.70
17473;DHT22;8853;52.552;13.356;2022-08-01T16:10:54;31.10;31.50
17473;DHT22;8853;52.552;13.356;2022-08-01T16:13:23;31.00;31.50
17473;DHT22;8853;52.552;13.356;2022-08-01T16:15:52;31.10;31.60
17473;DHT22;8853;52.552;13.356;2022-08-01T16:18:20;31.00;31.50
17473;DHT22;8853;52.552;13.356;2022-08-01T16:20:49;31.00;31.60
17473;DHT22;8853;52.552;13.356;2022-08-01T16:23:18;31.00;31.60